createdAt,value
2023-07-02T00:00:05.690Z,7.87
2023-07-02T00:02:32.444Z,9.73
2023-07-02T00:04:59.226Z,4.10
2023-07-02T00:07:27.043Z,5.13
2023-07-02T00:09:54.208Z,3.10
2023-07-02T00:12:21.085Z,4.63
2023-07-02T00:14:47.845Z,3.63
2023-07-02T00:17:14.592Z,3.20
2023-07-02T00:19:43.125Z,4.23
2023-07-02T00:22:10.584Z,11.43
2023-07-02T00:24:38.126Z,2.90
2023-07-02T00:27:05.336Z,3.10
2023-07-02T00:29:32.112Z,3.47
2023-07-02T00:31:59.421Z,4.80
2023-07-02T00:34:26.203Z,2.73
2023-07-02T00:36:53.308Z,2.97
2023-07-02T00:39:20.195Z,4.23
2023-07-02T00:41:49.953Z,2.80
2023-07-02T00:44:16.803Z,6.40
2023-07-02T00:46:43.748Z,5.23
2023-07-02T00:49:11.112Z,3.00
2023-07-02T00:51:38.689Z,2.90
2023-07-02T00:54:05.987Z,3.53
2023-07-02T00:56:32.822Z,3.10
2023-07-02T00:59:00.170Z,3.03
2023-07-02T01:01:35.503Z,3.07
2023-07-02T01:04:04.164Z,2.83
2023-07-02T01:06:33.772Z,4.50
2023-07-02T01:09:03.044Z,3.00
2023-07-02T01:11:31.663Z,2.70
2023-07-02T01:14:05.276Z,2.67
2023-07-02T01:16:34.264Z,3.53
2023-07-02T01:19:05.287Z,2.37
2023-07-02T01:21:33.680Z,5.07
2023-07-02T01:24:02.171Z,3.00
2023-07-02T01:26:38.220Z,2.00
2023-07-02T01:29:21.917Z,2.07
2023-07-02T01:31:49.193Z,1.97
2023-07-02T01:34:16.253Z,2.50
2023-07-02T01:36:43.065Z,3.10
2023-07-02T01:39:10.032Z,3.57
2023-07-02T01:41:45.634Z,2.00
2023-07-02T01:44:12.413Z,2.30
2023-07-02T01:46:39.288Z,1.87
2023-07-02T01:49:06.190Z,3.67
2023-07-02T01:51:33.213Z,3.83
2023-07-02T01:54:00.470Z,2.80
2023-07-02T01:56:27.655Z,2.27
2023-07-02T01:58:55.159Z,1.57
2023-07-02T02:01:21.955Z,2.23
2023-07-02T02:03:48.694Z,1.57
2023-07-02T02:06:15.488Z,1.80
2023-07-02T02:08:42.237Z,1.63
2023-07-02T02:11:09.183Z,1.60
2023-07-02T02:13:36.034Z,2.50
2023-07-02T02:16:02.903Z,1.80
2023-07-02T02:18:29.657Z,3.93
2023-07-02T02:20:56.437Z,3.03
2023-07-02T02:23:23.118Z,1.83
2023-07-02T02:25:49.954Z,1.27
2023-07-02T02:28:17.018Z,2.30
2023-07-02T02:30:43.774Z,1.73
2023-07-02T02:33:10.516Z,2.17
2023-07-02T02:35:37.208Z,1.60
2023-07-02T02:38:05.714Z,1.97
2023-07-02T02:40:32.485Z,2.00
2023-07-02T02:42:59.292Z,2.07
2023-07-02T02:45:26.111Z,2.83
2023-07-02T02:47:52.881Z,1.90
2023-07-02T02:50:19.590Z,3.83
2023-07-02T02:52:46.640Z,1.60
2023-07-02T02:55:13.755Z,1.77
2023-07-02T02:57:40.539Z,1.63
2023-07-02T03:00:08.261Z,2.00
2023-07-02T03:02:35.163Z,1.57
2023-07-02T03:05:03.466Z,4.17
2023-07-02T03:07:30.740Z,2.20
2023-07-02T03:09:57.508Z,1.63
2023-07-02T03:12:26.842Z,3.30
2023-07-02T03:14:55.690Z,3.57
2023-07-02T03:17:23.051Z,1.47
2023-07-02T03:19:50.470Z,6.70
2023-07-02T03:22:17.379Z,1.77
2023-07-02T03:24:44.226Z,2.23
2023-07-02T03:27:11.054Z,2.00
2023-07-02T03:29:39.280Z,1.57
2023-07-02T03:32:06.750Z,1.50
2023-07-02T03:34:33.574Z,1.93
2023-07-02T03:37:00.307Z,4.57
2023-07-02T03:39:27.298Z,2.37
2023-07-02T03:41:54.540Z,3.23
2023-07-02T03:44:21.556Z,4.20
2023-07-02T03:46:48.310Z,2.80
2023-07-02T03:49:15.039Z,3.80
2023-07-02T03:51:42.007Z,4.20
2023-07-02T03:54:08.764Z,3.80
2023-07-02T03:56:35.578Z,5.93
2023-07-02T03:59:02.316Z,6.70
2023-07-02T04:01:29.029Z,3.17
2023-07-02T04:03:57.472Z,3.60
2023-07-02T04:06:24.301Z,9.47
2023-07-02T04:08:51.053Z,7.63
2023-07-02T04:11:17.912Z,8.43
2023-07-02T04:13:44.678Z,3.50
2023-07-02T04:16:11.462Z,4.77
2023-07-02T04:18:38.276Z,2.73
2023-07-02T04:21:05.174Z,3.17
2023-07-02T04:23:31.872Z,3.50
2023-07-02T04:26:08.626Z,2.80
2023-07-02T04:28:46.261Z,3.60
2023-07-02T04:31:13.287Z,3.50
2023-07-02T04:33:40.674Z,2.30
2023-07-02T04:36:07.729Z,4.03
2023-07-02T04:38:34.435Z,3.70
2023-07-02T04:41:06.498Z,3.47
2023-07-02T04:43:34.506Z,3.30
2023-07-02T04:46:01.962Z,3.27
2023-07-02T04:48:29.305Z,8.33
2023-07-02T04:50:56.058Z,4.17
2023-07-02T04:53:22.797Z,3.13
2023-07-02T04:55:49.590Z,2.93
2023-07-02T04:58:16.727Z,3.10
2023-07-02T05:00:43.830Z,2.60
2023-07-02T05:03:10.747Z,7.40
2023-07-02T05:05:37.505Z,3.43
2023-07-02T05:08:06.059Z,4.20
2023-07-02T05:10:33.369Z,8.73
2023-07-02T05:13:00.090Z,3.67
2023-07-02T05:15:27.431Z,3.90
2023-07-02T05:17:54.454Z,4.30
2023-07-02T05:20:21.444Z,5.13
2023-07-02T05:22:48.615Z,5.10
2023-07-02T05:25:15.394Z,9.53
2023-07-02T05:27:42.178Z,3.47
2023-07-02T05:30:09.362Z,5.83
2023-07-02T05:32:36.364Z,4.00
2023-07-02T05:35:03.230Z,4.10
2023-07-02T05:37:29.981Z,6.20
2023-07-02T05:39:56.754Z,3.23
2023-07-02T05:42:23.480Z,4.83
2023-07-02T05:44:51.408Z,3.20
2023-07-02T05:47:18.156Z,3.97
2023-07-02T05:49:44.898Z,5.10
2023-07-02T05:52:11.637Z,3.30
2023-07-02T05:54:44.546Z,5.23
2023-07-02T05:57:11.286Z,3.63
2023-07-02T05:59:39.179Z,6.50
2023-07-02T06:02:05.992Z,7.13
2023-07-02T06:04:32.847Z,4.10
2023-07-02T06:06:59.653Z,2.90
2023-07-02T06:09:27.900Z,3.07
2023-07-02T06:11:54.693Z,4.67
2023-07-02T06:14:21.519Z,3.33
2023-07-02T06:16:48.404Z,4.00
2023-07-02T06:19:15.203Z,3.93
2023-07-02T06:21:41.963Z,3.70
2023-07-02T06:24:08.720Z,3.30
2023-07-02T06:26:35.494Z,4.80
2023-07-02T06:29:02.243Z,2.60
2023-07-02T06:31:28.997Z,2.77
2023-07-02T06:33:56.062Z,3.67
2023-07-02T06:36:23.030Z,4.17
2023-07-02T06:38:50.101Z,4.40
2023-07-02T06:41:17.052Z,4.40
2023-07-02T06:43:45.108Z,3.53
2023-07-02T06:46:13.223Z,3.20
2023-07-02T06:48:40.114Z,2.53
2023-07-02T06:51:08.146Z,4.60
2023-07-02T06:53:35.509Z,7.87
2023-07-02T06:56:02.270Z,6.93
2023-07-02T06:58:29.043Z,4.00
2023-07-02T07:00:55.770Z,2.83
2023-07-02T07:03:22.526Z,4.90
2023-07-02T07:05:50.052Z,5.03
2023-07-02T07:08:16.861Z,3.07
2023-07-02T07:10:43.689Z,2.73
2023-07-02T07:13:12.070Z,4.67
2023-07-02T07:15:39.362Z,2.77
2023-07-02T07:18:06.307Z,6.90
2023-07-02T07:20:33.131Z,3.60
2023-07-02T07:23:00.000Z,3.63
2023-07-02T07:25:26.910Z,3.30
2023-07-02T07:27:53.974Z,4.10
2023-07-02T07:30:24.013Z,5.97
2023-07-02T07:32:54.601Z,10.50
2023-07-02T07:35:22.923Z,11.20
2023-07-02T07:37:50.651Z,3.40
2023-07-02T07:40:17.597Z,4.80
2023-07-02T07:42:44.672Z,4.27
2023-07-02T07:45:12.534Z,3.80
2023-07-02T07:47:40.648Z,5.27
2023-07-02T07:50:11.840Z,2.97
2023-07-02T07:52:43.248Z,3.33
2023-07-02T07:55:10.428Z,3.40
2023-07-02T07:57:38.567Z,3.57
2023-07-02T08:00:09.790Z,4.00
2023-07-02T08:02:36.734Z,4.73
2023-07-02T08:05:04.945Z,3.20
2023-07-02T08:07:33.412Z,3.93
2023-07-02T08:10:00.940Z,3.93
2023-07-02T08:12:29.951Z,4.37
2023-07-02T08:15:00.183Z,5.03
2023-07-02T08:17:27.019Z,3.97
2023-07-02T08:19:56.596Z,3.23
2023-07-02T08:22:23.379Z,6.13
2023-07-02T08:24:53.395Z,5.43
2023-07-02T08:27:21.349Z,3.63
2023-07-02T08:29:48.580Z,5.20
2023-07-02T08:32:16.465Z,3.80
2023-07-02T08:34:43.238Z,7.37
2023-07-02T08:37:10.168Z,5.10
2023-07-02T08:39:38.632Z,3.97
2023-07-02T08:42:05.714Z,4.20
2023-07-02T08:44:32.627Z,2.70
2023-07-02T08:46:59.925Z,4.80
2023-07-02T08:49:26.916Z,4.83
2023-07-02T08:51:53.630Z,4.07
2023-07-02T08:54:21.009Z,4.03
2023-07-02T08:56:48.073Z,2.77
2023-07-02T08:59:14.815Z,2.90
2023-07-02T09:01:52.144Z,3.80
2023-07-02T09:04:20.513Z,2.80
2023-07-02T09:06:49.022Z,2.93
2023-07-02T09:09:15.914Z,3.03
2023-07-02T09:11:50.836Z,2.90
2023-07-02T09:14:27.911Z,3.20
2023-07-02T09:17:10.156Z,3.70
2023-07-02T09:19:48.823Z,2.90
2023-07-02T09:22:16.978Z,3.70
2023-07-02T09:24:58.665Z,3.90
2023-07-02T09:27:44.213Z,3.20
2023-07-02T09:30:17.213Z,5.43
2023-07-02T09:32:45.826Z,2.43
2023-07-02T09:35:13.394Z,2.70
2023-07-02T09:37:42.675Z,3.80
2023-07-02T09:40:10.194Z,2.60
2023-07-02T09:42:39.736Z,3.47
2023-07-02T09:45:09.698Z,4.47
2023-07-02T09:47:48.571Z,2.50
2023-07-02T09:50:17.087Z,2.63
2023-07-02T09:52:46.945Z,11.00
2023-07-02T09:55:14.239Z,4.43
2023-07-02T09:57:41.695Z,3.13
2023-07-02T10:00:09.907Z,20.13
2023-07-02T10:02:37.506Z,2.93
2023-07-02T10:05:04.669Z,2.50
2023-07-02T10:07:34.478Z,3.00
2023-07-02T10:10:02.034Z,3.17
2023-07-02T10:12:30.287Z,3.83
2023-07-02T10:14:59.121Z,3.33
2023-07-02T10:17:26.110Z,7.83
2023-07-02T10:19:54.050Z,4.80
2023-07-02T10:22:20.850Z,3.60
2023-07-02T10:25:06.862Z,5.00
2023-07-02T10:27:40.335Z,3.00
2023-07-02T10:30:08.775Z,4.07
2023-07-02T10:32:36.779Z,6.13
2023-07-02T10:35:17.772Z,5.20
2023-07-02T10:37:45.789Z,4.30
2023-07-02T10:40:13.276Z,3.90
2023-07-02T10:42:50.855Z,4.90
2023-07-02T10:45:18.292Z,5.40
2023-07-02T10:47:45.153Z,5.90
2023-07-02T10:50:31.055Z,12.80
2023-07-02T10:52:57.831Z,6.90
2023-07-02T10:55:26.344Z,5.77
2023-07-02T10:58:05.275Z,6.33
2023-07-02T11:00:32.695Z,6.13
2023-07-02T11:03:01.578Z,7.50
2023-07-02T11:05:30.054Z,9.80
2023-07-02T11:08:09.887Z,5.57
2023-07-02T11:10:36.868Z,9.03
2023-07-02T11:13:16.505Z,5.37
2023-07-02T11:15:43.919Z,6.87
2023-07-02T11:18:12.481Z,6.90
2023-07-02T11:20:39.752Z,5.70
2023-07-02T11:23:17.350Z,5.43
2023-07-02T11:25:54.624Z,6.90
2023-07-02T11:28:24.122Z,8.17
2023-07-02T11:30:50.999Z,6.47
2023-07-02T11:33:17.848Z,7.63
2023-07-02T11:35:44.757Z,10.23
2023-07-02T11:38:11.982Z,11.00
2023-07-02T11:40:38.983Z,11.33
2023-07-02T11:43:07.162Z,8.63
2023-07-02T11:45:34.235Z,9.03
2023-07-02T11:48:01.305Z,11.63
2023-07-02T11:50:28.170Z,10.97
2023-07-02T11:52:55.034Z,11.30
2023-07-02T11:55:22.269Z,10.70
2023-07-02T11:57:50.599Z,10.60
2023-07-02T12:00:17.847Z,9.40
2023-07-02T12:02:45.030Z,9.27
2023-07-02T12:05:13.031Z,9.50
2023-07-02T12:07:40.313Z,8.70
2023-07-02T12:10:08.729Z,9.10
2023-07-02T12:12:35.534Z,10.03
2023-07-02T12:15:02.248Z,13.90
2023-07-02T12:17:29.097Z,10.83
2023-07-02T12:19:55.841Z,10.37
2023-07-02T12:22:24.076Z,8.90
2023-07-02T12:24:51.573Z,9.27
2023-07-02T12:27:18.356Z,10.33
2023-07-02T12:29:45.200Z,9.87
2023-07-02T12:32:11.958Z,9.23
2023-07-02T12:34:38.821Z,9.83
2023-07-02T12:37:06.022Z,8.80
2023-07-02T12:39:32.798Z,10.83
2023-07-02T12:41:59.533Z,11.10
2023-07-02T12:44:26.436Z,9.20
2023-07-02T12:46:53.385Z,12.43
2023-07-02T12:49:20.407Z,10.40
2023-07-02T12:51:48.034Z,9.33
2023-07-02T12:54:16.126Z,16.83
2023-07-02T12:56:45.787Z,10.03
2023-07-02T12:59:12.869Z,11.47
2023-07-02T13:01:39.777Z,11.27
2023-07-02T13:04:07.321Z,13.80
2023-07-02T13:06:41.332Z,13.13
2023-07-02T13:09:11.577Z,14.33
2023-07-02T13:11:39.480Z,10.47
2023-07-02T13:14:06.353Z,13.40
2023-07-02T13:16:33.207Z,12.80
2023-07-02T13:19:03.003Z,12.70
2023-07-02T13:21:30.260Z,14.00
2023-07-02T13:23:57.643Z,16.00
2023-07-02T13:26:24.937Z,11.97
2023-07-02T13:28:52.173Z,13.07
2023-07-02T13:31:19.317Z,13.00
2023-07-02T13:33:50.557Z,13.30
2023-07-02T13:36:17.928Z,12.93
2023-07-02T13:38:44.854Z,15.67
2023-07-02T13:41:11.849Z,17.37
2023-07-02T13:43:38.646Z,14.27
2023-07-02T13:46:05.456Z,14.90
2023-07-02T13:48:32.328Z,14.50
2023-07-02T13:50:59.736Z,13.07
2023-07-02T13:53:26.864Z,14.00
2023-07-02T13:55:53.787Z,12.50
2023-07-02T13:58:29.527Z,17.80
2023-07-02T14:00:57.941Z,12.97
2023-07-02T14:03:24.895Z,16.23
2023-07-02T14:05:52.389Z,15.23
2023-07-02T14:08:19.451Z,16.13
2023-07-02T14:10:46.194Z,27.87
2023-07-02T14:13:12.996Z,13.80
2023-07-02T14:15:39.925Z,13.73
2023-07-02T14:18:07.335Z,17.83
2023-07-02T14:20:34.222Z,13.10
2023-07-02T14:23:01.019Z,16.53
2023-07-02T14:25:40.441Z,13.60
2023-07-02T14:28:09.709Z,17.27
2023-07-02T14:30:38.012Z,16.27
2023-07-02T14:33:05.425Z,15.10
2023-07-02T14:35:32.352Z,17.20
2023-07-02T14:37:59.658Z,15.00
2023-07-02T14:40:26.533Z,15.50
2023-07-02T14:42:53.495Z,16.67
2023-07-02T14:45:20.345Z,17.13
2023-07-02T14:47:47.282Z,15.33
2023-07-02T14:50:14.833Z,15.40
2023-07-02T14:52:42.343Z,15.77
2023-07-02T14:55:09.261Z,20.30
2023-07-02T14:57:36.150Z,22.93
2023-07-02T15:00:03.998Z,16.87
2023-07-02T15:02:30.979Z,16.63
2023-07-02T15:04:57.983Z,22.13
2023-07-02T15:07:24.998Z,17.80
2023-07-02T15:09:51.834Z,17.87
2023-07-02T15:12:18.839Z,19.67
2023-07-02T15:14:45.629Z,16.97
2023-07-02T15:17:12.379Z,16.53
2023-07-02T15:19:39.237Z,17.97
2023-07-02T15:22:06.015Z,15.17
2023-07-02T15:24:34.549Z,17.00
2023-07-02T15:27:02.221Z,19.30
2023-07-02T15:29:29.105Z,16.80
2023-07-02T15:31:55.907Z,19.03
2023-07-02T15:34:22.753Z,21.33
2023-07-02T15:36:49.530Z,18.13
2023-07-02T15:39:21.884Z,18.87
2023-07-02T15:41:48.642Z,17.00
2023-07-02T15:44:15.622Z,18.00
2023-07-02T15:46:42.467Z,21.27
2023-07-02T15:49:10.134Z,16.83
2023-07-02T15:51:40.213Z,17.10
2023-07-02T15:54:08.235Z,15.13
2023-07-02T15:56:36.077Z,16.77
2023-07-02T15:59:03.818Z,17.60
2023-07-02T16:01:31.543Z,22.20
2023-07-02T16:03:58.502Z,16.40
2023-07-02T16:06:30.571Z,21.23
2023-07-02T16:08:57.453Z,14.37
2023-07-02T16:11:25.787Z,15.97
2023-07-02T16:13:53.140Z,17.30
2023-07-02T16:16:20.130Z,16.10
2023-07-02T16:18:47.640Z,14.50
2023-07-02T16:21:14.412Z,15.90
2023-07-02T16:23:41.816Z,18.40
2023-07-02T16:26:10.781Z,14.20
2023-07-02T16:28:38.935Z,15.10
2023-07-02T16:31:09.225Z,16.40
2023-07-02T16:33:38.038Z,18.33
2023-07-02T16:36:08.034Z,12.47
2023-07-02T16:38:36.490Z,17.50
2023-07-02T16:41:04.391Z,12.97
2023-07-02T16:43:31.170Z,15.10
2023-07-02T16:45:57.997Z,12.63
2023-07-02T16:48:25.685Z,16.93
2023-07-02T16:51:04.877Z,12.30
2023-07-02T16:53:31.813Z,16.27
2023-07-02T16:56:03.717Z,14.07
2023-07-02T16:58:31.697Z,12.67
2023-07-02T17:01:10.212Z,12.57
2023-07-02T17:03:37.491Z,12.97
2023-07-02T17:06:06.832Z,12.67
2023-07-02T17:08:36.768Z,12.10
2023-07-02T17:11:04.348Z,14.40
2023-07-02T17:13:31.365Z,11.73
2023-07-02T17:15:58.343Z,10.33
2023-07-02T17:18:26.165Z,11.70
2023-07-02T17:20:53.495Z,13.13
2023-07-02T17:23:22.822Z,12.17
2023-07-02T17:25:50.953Z,13.80
2023-07-02T17:28:18.980Z,10.97
2023-07-02T17:30:45.971Z,11.37
2023-07-02T17:33:12.773Z,9.40
2023-07-02T17:35:43.595Z,9.43
2023-07-02T17:38:10.757Z,10.37
2023-07-02T17:40:41.353Z,13.60
2023-07-02T17:43:08.931Z,9.00
2023-07-02T17:45:35.720Z,9.13
2023-07-02T17:48:04.450Z,11.63
2023-07-02T17:50:31.413Z,9.70
2023-07-02T17:52:58.205Z,9.07
2023-07-02T17:55:25.099Z,9.20
2023-07-02T17:57:52.002Z,9.37
2023-07-02T18:00:18.818Z,10.33
2023-07-02T18:02:46.050Z,11.10
2023-07-02T18:05:12.879Z,10.50
2023-07-02T18:07:39.668Z,10.70
2023-07-02T18:10:06.865Z,8.87
2023-07-02T18:12:33.688Z,10.23
2023-07-02T18:15:00.557Z,11.67
2023-07-02T18:17:27.437Z,9.00
2023-07-02T18:19:57.001Z,10.13
2023-07-02T18:22:23.929Z,10.23
2023-07-02T18:24:50.795Z,8.80
2023-07-02T18:27:17.580Z,9.93
2023-07-02T18:29:44.499Z,8.23
2023-07-02T18:32:11.262Z,9.60
2023-07-02T18:34:40.910Z,8.63
2023-07-02T18:37:10.688Z,8.50
2023-07-02T18:39:38.188Z,8.07
2023-07-02T18:42:11.200Z,8.37
2023-07-02T18:44:39.296Z,10.10
2023-07-02T18:47:09.501Z,9.10
2023-07-02T18:49:37.481Z,8.30
2023-07-02T18:52:07.204Z,8.07
2023-07-02T18:54:36.074Z,8.43
2023-07-02T18:57:04.685Z,8.10
2023-07-02T18:59:31.830Z,8.80
2023-07-02T19:02:00.077Z,10.60
2023-07-02T19:04:27.912Z,9.03
2023-07-02T19:06:57.368Z,8.37
2023-07-02T19:09:24.432Z,9.03
2023-07-02T19:11:51.244Z,12.07
2023-07-02T19:14:18.021Z,9.80
2023-07-02T19:16:44.915Z,6.77
2023-07-02T19:19:11.662Z,8.17
2023-07-02T19:21:38.489Z,7.73
2023-07-02T19:24:05.744Z,9.50
2023-07-02T19:26:32.676Z,8.47
2023-07-02T19:28:59.433Z,8.00
2023-07-02T19:31:26.488Z,10.70
2023-07-02T19:33:53.349Z,8.47
2023-07-02T19:36:20.258Z,10.80
2023-07-02T19:38:47.124Z,9.07
2023-07-02T19:41:13.922Z,10.77
2023-07-02T19:43:40.652Z,9.00
2023-07-02T19:46:07.374Z,9.00
2023-07-02T19:48:34.197Z,9.37
2023-07-02T19:51:03.176Z,8.13
2023-07-02T19:53:30.716Z,8.90
2023-07-02T19:55:58.669Z,10.23
2023-07-02T19:58:25.827Z,11.00
2023-07-02T20:00:53.342Z,9.03
2023-07-02T20:03:20.546Z,11.40
2023-07-02T20:05:48.347Z,9.90
2023-07-02T20:08:15.480Z,8.77
2023-07-02T20:10:42.308Z,9.07
2023-07-02T20:13:09.252Z,9.40
2023-07-02T20:15:36.131Z,9.23
2023-07-02T20:18:04.347Z,7.53
2023-07-02T20:20:32.072Z,11.50
2023-07-02T20:22:59.551Z,10.73
2023-07-02T20:27:56.437Z,8.37
2023-07-02T20:30:23.417Z,9.87
2023-07-02T20:32:50.448Z,10.47
2023-07-02T20:35:20.132Z,11.60
2023-07-02T20:37:51.161Z,13.97
2023-07-02T20:40:19.027Z,7.97
2023-07-02T20:42:46.039Z,9.70
2023-07-02T20:45:14.376Z,8.40
2023-07-02T20:47:42.489Z,7.87
2023-07-02T20:50:12.074Z,7.87
2023-07-02T20:52:38.845Z,8.87
2023-07-02T20:55:05.975Z,8.77
2023-07-02T20:57:33.411Z,10.63
2023-07-02T21:00:00.685Z,12.43
2023-07-02T21:02:28.200Z,9.00
2023-07-02T21:04:57.996Z,13.60
2023-07-02T21:07:27.227Z,9.07
2023-07-02T21:09:54.130Z,9.13
2023-07-02T21:12:20.912Z,8.63
2023-07-02T21:14:54.888Z,8.80
2023-07-02T21:17:22.383Z,9.87
2023-07-02T21:19:49.151Z,8.87
2023-07-02T21:22:15.864Z,8.37
2023-07-02T21:24:42.739Z,9.00
2023-07-02T21:27:09.487Z,8.63
2023-07-02T21:29:36.349Z,9.70
2023-07-02T21:32:03.419Z,10.00
2023-07-02T21:34:30.423Z,12.40
2023-07-02T21:36:57.331Z,15.23
2023-07-02T21:39:24.216Z,9.27
2023-07-02T21:41:50.953Z,8.27
2023-07-02T21:44:19.266Z,9.40
2023-07-02T21:46:46.124Z,9.20
2023-07-02T21:49:12.999Z,11.20
2023-07-02T21:51:39.727Z,9.80
2023-07-02T21:54:06.447Z,11.47
2023-07-02T21:56:33.170Z,10.73
2023-07-02T21:59:00.372Z,9.13
2023-07-02T22:01:27.356Z,10.33
2023-07-02T22:03:54.173Z,11.33
2023-07-02T22:07:00.016Z,10.23
2023-07-02T22:09:26.758Z,10.13
2023-07-02T22:11:53.520Z,9.97
2023-07-02T22:14:20.305Z,11.30
2023-07-02T22:16:47.073Z,10.10
2023-07-02T22:19:13.873Z,9.93
2023-07-02T22:21:45.373Z,8.73
2023-07-02T22:24:12.945Z,9.90
2023-07-02T22:26:39.744Z,10.40
2023-07-02T22:29:06.465Z,11.00
2023-07-02T22:31:33.353Z,11.13
2023-07-02T22:34:00.176Z,10.10
2023-07-02T22:36:26.939Z,10.00
2023-07-02T22:38:53.791Z,11.77
2023-07-02T22:41:20.478Z,9.33
2023-07-02T22:43:47.243Z,11.67
2023-07-02T22:46:14.620Z,10.10
2023-07-02T22:48:41.459Z,9.33
2023-07-02T22:51:08.192Z,10.40
2023-07-02T22:53:35.097Z,10.87
2023-07-02T22:56:12.677Z,10.70
2023-07-02T22:58:39.839Z,11.80
2023-07-02T23:01:09.397Z,10.43
2023-07-02T23:03:37.262Z,10.03
2023-07-02T23:06:04.858Z,11.37
2023-07-02T23:08:31.835Z,12.47
2023-07-02T23:10:58.717Z,11.27
2023-07-02T23:13:25.416Z,10.97
2023-07-02T23:15:52.887Z,11.40
2023-07-02T23:18:19.865Z,12.57
2023-07-02T23:20:46.748Z,10.93
2023-07-02T23:23:14.699Z,11.10
2023-07-02T23:25:46.834Z,10.27
2023-07-02T23:28:13.959Z,12.60
2023-07-02T23:30:42.950Z,11.90
2023-07-02T23:33:11.131Z,12.93
2023-07-02T23:35:38.806Z,11.37
2023-07-02T23:38:07.266Z,13.90
2023-07-02T23:40:35.098Z,10.43
2023-07-02T23:43:02.384Z,12.87
2023-07-02T23:45:29.389Z,12.20
2023-07-02T23:47:56.311Z,11.93
2023-07-02T23:50:23.202Z,13.70
2023-07-02T23:52:51.013Z,12.33
2023-07-02T23:55:18.130Z,12.53
2023-07-02T23:57:45.733Z,11.33
